createdAt,value
2023-05-20T00:00:23.254Z,500.00
2023-05-20T00:01:23.268Z,500.00
2023-05-20T00:02:23.385Z,500.00
2023-05-20T00:03:23.526Z,440.00
2023-05-20T00:04:23.430Z,414.00
2023-05-20T00:05:23.471Z,400.00
2023-05-20T00:06:23.565Z,400.00
2023-05-20T00:07:23.585Z,409.00
2023-05-20T00:08:23.639Z,429.00
2023-05-20T00:09:23.691Z,470.00
2023-05-20T00:10:23.750Z,498.00
2023-05-20T00:11:23.809Z,502.00
2023-05-20T00:12:23.836Z,500.00
2023-05-20T00:13:23.892Z,500.00
2023-05-20T00:14:23.897Z,500.00
2023-05-20T00:15:23.921Z,500.00
2023-05-20T00:16:23.975Z,500.00
2023-05-20T00:17:23.991Z,500.00
2023-05-20T00:18:24.023Z,500.00
2023-05-20T00:19:24.152Z,500.00
2023-05-20T00:20:24.057Z,501.00
2023-05-20T00:21:24.103Z,500.00
2023-05-20T00:22:24.119Z,503.00
2023-05-20T00:23:24.145Z,497.00
2023-05-20T00:24:24.200Z,501.00
2023-05-20T00:25:24.207Z,502.00
2023-05-20T00:26:24.230Z,500.00
2023-05-20T00:27:24.259Z,503.00
2023-05-20T00:28:24.265Z,504.00
2023-05-20T00:29:24.319Z,502.00
2023-05-20T00:30:24.298Z,502.00
2023-05-20T00:31:24.378Z,500.00
2023-05-20T00:32:24.443Z,502.00
2023-05-20T00:33:24.333Z,499.00
2023-05-20T00:34:24.367Z,504.00
2023-05-20T00:35:24.370Z,502.00
2023-05-20T00:36:24.366Z,506.00
2023-05-20T00:37:24.364Z,501.00
2023-05-20T00:38:24.377Z,504.00
2023-05-20T00:39:24.412Z,501.00
2023-05-20T00:40:24.384Z,502.00
2023-05-20T00:41:24.389Z,499.00
2023-05-20T00:42:24.405Z,504.00
2023-05-20T00:43:24.410Z,505.00
2023-05-20T00:44:24.402Z,500.00
2023-05-20T00:45:24.449Z,500.00
2023-05-20T00:46:24.499Z,500.00
2023-05-20T00:47:24.455Z,504.00
2023-05-20T00:48:24.443Z,502.00
2023-05-20T00:49:24.464Z,504.00
2023-05-20T00:50:24.468Z,511.00
2023-05-20T00:51:24.469Z,501.00
2023-05-20T00:52:24.495Z,500.00
2023-05-20T00:53:24.496Z,501.00
2023-05-20T00:54:24.513Z,502.00
2023-05-20T00:55:24.530Z,511.00
2023-05-20T00:56:24.532Z,505.00
2023-05-20T00:57:24.536Z,507.00
2023-05-20T00:58:24.555Z,503.00
2023-05-20T00:59:24.562Z,505.00
2023-05-20T01:00:24.603Z,502.00
2023-05-20T01:01:24.672Z,500.00
2023-05-20T01:02:24.732Z,504.00
2023-05-20T01:03:24.864Z,505.00
2023-05-20T01:04:24.671Z,506.00
2023-05-20T01:05:24.730Z,505.00
2023-05-20T01:06:24.687Z,503.00
2023-05-20T01:07:24.700Z,500.00
2023-05-20T01:08:24.707Z,505.00
2023-05-20T01:09:24.717Z,504.00
2023-05-20T01:10:24.848Z,500.00
2023-05-20T01:11:24.774Z,505.00
2023-05-20T01:12:24.791Z,506.00
2023-05-20T01:13:24.802Z,506.00
2023-05-20T01:14:24.828Z,504.00
2023-05-20T01:15:24.825Z,509.00
2023-05-20T01:16:24.952Z,505.00
2023-05-20T01:17:24.864Z,506.00
2023-05-20T01:18:24.844Z,507.00
2023-05-20T01:19:24.875Z,503.00
2023-05-20T01:20:24.852Z,509.00
2023-05-20T01:21:24.855Z,505.00
2023-05-20T01:22:24.870Z,507.00
2023-05-20T01:23:24.890Z,501.00
2023-05-20T01:24:24.919Z,504.00
2023-05-20T01:25:24.996Z,504.00
2023-05-20T01:26:24.936Z,501.00
2023-05-20T01:27:24.985Z,501.00
2023-05-20T01:28:24.965Z,500.00
2023-05-20T01:29:24.995Z,505.00
2023-05-20T01:30:25.014Z,501.00
2023-05-20T01:31:25.055Z,502.00
2023-05-20T01:32:25.094Z,503.00
2023-05-20T01:33:25.132Z,506.00
2023-05-20T01:34:25.119Z,500.00
2023-05-20T01:35:25.168Z,505.00
2023-05-20T01:36:25.166Z,506.00
2023-05-20T01:37:25.753Z,506.00
2023-05-20T01:38:25.287Z,504.00
2023-05-20T01:39:25.258Z,501.00
2023-05-20T01:40:25.293Z,502.00
2023-05-20T01:41:25.326Z,501.00
2023-05-20T01:42:25.346Z,500.00
2023-05-20T01:43:25.370Z,502.00
2023-05-20T01:44:25.399Z,505.00
2023-05-20T01:45:25.410Z,504.00
2023-05-20T01:46:25.536Z,503.00
2023-05-20T01:47:25.558Z,503.00
2023-05-20T01:48:25.488Z,509.00
2023-05-20T01:49:25.531Z,503.00
2023-05-20T01:50:25.542Z,505.00
2023-05-20T01:51:25.618Z,503.00
2023-05-20T01:52:25.586Z,502.00
2023-05-20T01:53:25.621Z,502.00
2023-05-20T01:54:25.620Z,507.00
2023-05-20T01:55:25.674Z,502.00
2023-05-20T01:56:25.662Z,506.00
2023-05-20T01:57:25.669Z,505.00
2023-05-20T01:58:25.636Z,506.00
2023-05-20T01:59:25.651Z,507.00
2023-05-20T02:00:25.658Z,503.00
2023-05-20T02:01:25.767Z,508.00
2023-05-20T02:02:25.771Z,504.00
2023-05-20T02:03:25.728Z,502.00
2023-05-20T02:04:25.677Z,506.00
2023-05-20T02:05:25.793Z,510.00
2023-05-20T02:06:25.734Z,504.00
2023-05-20T02:07:25.703Z,500.00
2023-05-20T02:08:25.700Z,504.00
2023-05-20T02:09:25.710Z,502.00
2023-05-20T02:10:25.725Z,506.00
2023-05-20T02:11:25.758Z,509.00
2023-05-20T02:12:25.741Z,506.00
2023-05-20T02:13:25.747Z,504.00
2023-05-20T02:14:25.752Z,506.00
2023-05-20T02:15:25.768Z,506.00
2023-05-20T02:16:25.817Z,504.00
2023-05-20T02:17:25.784Z,506.00
2023-05-20T02:18:25.805Z,511.00
2023-05-20T02:19:25.991Z,501.00
2023-05-20T02:20:25.840Z,508.00
2023-05-20T02:21:25.865Z,508.00
2023-05-20T02:22:25.919Z,502.00
2023-05-20T02:23:25.947Z,503.00
2023-05-20T02:24:25.931Z,504.00
2023-05-20T02:25:25.967Z,503.00
2023-05-20T02:26:25.982Z,509.00
2023-05-20T02:27:26.000Z,507.00
2023-05-20T02:28:26.005Z,508.00
2023-05-20T02:29:26.054Z,505.00
2023-05-20T02:30:26.040Z,503.00
2023-05-20T02:31:26.064Z,508.00
2023-05-20T02:32:26.054Z,501.00
2023-05-20T02:33:26.108Z,503.00
2023-05-20T02:34:26.157Z,505.00
2023-05-20T02:35:26.115Z,502.00
2023-05-20T02:36:26.124Z,507.00
2023-05-20T02:37:26.167Z,507.00
2023-05-20T02:38:26.181Z,507.00
2023-05-20T02:39:26.233Z,511.00
2023-05-20T02:40:26.250Z,507.00
2023-05-20T02:41:26.282Z,508.00
2023-05-20T02:42:26.319Z,506.00
2023-05-20T02:43:26.392Z,506.00
2023-05-20T02:44:26.416Z,508.00
2023-05-20T02:45:26.478Z,510.00
2023-05-20T02:46:26.575Z,507.00
2023-05-20T02:47:26.601Z,514.00
2023-05-20T02:48:26.653Z,507.00
2023-05-20T02:49:26.662Z,507.00
2023-05-20T02:50:26.687Z,509.00
2023-05-20T02:51:26.726Z,505.00
2023-05-20T02:52:26.764Z,507.00
2023-05-20T02:53:26.853Z,510.00
2023-05-20T02:54:26.830Z,509.00
2023-05-20T02:55:26.859Z,511.00
2023-05-20T02:56:26.909Z,507.00
2023-05-20T02:57:26.931Z,502.00
2023-05-20T02:58:27.034Z,505.00
2023-05-20T02:59:27.001Z,507.00
2023-05-20T03:00:27.027Z,503.00
2023-05-20T03:01:27.126Z,507.00
2023-05-20T03:02:27.114Z,506.00
2023-05-20T03:03:27.145Z,504.00
2023-05-20T03:04:27.250Z,500.00
2023-05-20T03:05:27.190Z,502.00
2023-05-20T03:06:27.231Z,506.00
2023-05-20T03:07:27.292Z,503.00
2023-05-20T03:08:27.338Z,504.00
2023-05-20T03:09:27.426Z,507.00
2023-05-20T03:10:27.428Z,510.00
2023-05-20T03:11:27.536Z,507.00
2023-05-20T03:12:27.556Z,501.00
2023-05-20T03:13:27.620Z,507.00
2023-05-20T03:14:27.665Z,511.00
2023-05-20T03:15:27.715Z,507.00
2023-05-20T03:16:27.829Z,503.00
2023-05-20T03:17:27.879Z,509.00
2023-05-20T03:18:27.863Z,511.00
2023-05-20T03:19:27.939Z,506.00
2023-05-20T03:20:27.954Z,506.00
2023-05-20T03:21:28.015Z,506.00
2023-05-20T03:22:28.057Z,506.00
2023-05-20T03:23:28.100Z,506.00
2023-05-20T03:24:28.151Z,506.00
2023-05-20T03:25:28.208Z,503.00
2023-05-20T03:26:28.232Z,504.00
2023-05-20T03:27:28.290Z,501.00
2023-05-20T03:28:28.324Z,503.00
2023-05-20T03:29:28.386Z,508.00
2023-05-20T03:30:28.445Z,511.00
2023-05-20T03:31:28.543Z,508.00
2023-05-20T03:32:28.557Z,504.00
2023-05-20T03:33:28.595Z,504.00
2023-05-20T03:34:28.652Z,501.00
2023-05-20T03:35:28.704Z,503.00
2023-05-20T03:36:28.750Z,505.00
2023-05-20T03:37:28.805Z,504.00
2023-05-20T03:38:28.867Z,508.00
2023-05-20T03:39:28.938Z,503.00
2023-05-20T03:40:29.002Z,506.00
2023-05-20T03:41:29.078Z,505.00
2023-05-20T03:42:29.115Z,504.00
2023-05-20T03:43:29.176Z,506.00
2023-05-20T03:44:29.227Z,506.00
2023-05-20T03:45:29.290Z,506.00
2023-05-20T03:46:29.388Z,506.00
2023-05-20T03:47:29.462Z,503.00
2023-05-20T03:48:29.471Z,506.00
2023-05-20T03:49:29.522Z,506.00
2023-05-20T03:50:29.614Z,507.00
2023-05-20T03:51:29.645Z,506.00
2023-05-20T03:52:29.699Z,508.00
2023-05-20T03:53:29.767Z,509.00
2023-05-20T03:54:29.825Z,505.00
2023-05-20T03:55:29.905Z,508.00
2023-05-20T03:56:29.948Z,504.00
2023-05-20T03:57:30.035Z,506.00
2023-05-20T03:58:30.070Z,501.00
2023-05-20T03:59:30.140Z,505.00
2023-05-20T04:00:30.223Z,500.00
2023-05-20T04:01:30.256Z,504.00
2023-05-20T04:02:30.462Z,507.00
2023-05-20T04:03:30.484Z,508.00
2023-05-20T04:04:30.420Z,504.00
2023-05-20T04:05:30.483Z,501.00
2023-05-20T04:06:30.540Z,505.00
2023-05-20T04:07:30.593Z,504.00
2023-05-20T04:08:30.662Z,505.00
2023-05-20T04:09:30.711Z,506.00
2023-05-20T04:10:30.770Z,504.00
2023-05-20T04:11:30.847Z,508.00
2023-05-20T04:12:30.895Z,507.00
2023-05-20T04:13:30.991Z,505.00
2023-05-20T04:14:32.027Z,500.00
2023-05-20T04:15:31.003Z,509.00
2023-05-20T04:16:31.028Z,504.00
2023-05-20T04:17:31.005Z,501.00
2023-05-20T04:18:30.986Z,502.00
2023-05-20T04:19:31.072Z,500.00
2023-05-20T04:20:30.975Z,500.00
2023-05-20T04:21:30.966Z,508.00
2023-05-20T04:22:30.956Z,504.00
2023-05-20T04:23:30.963Z,506.00
2023-05-20T04:24:30.955Z,507.00
2023-05-20T04:25:30.964Z,504.00
2023-05-20T04:26:30.926Z,508.00
2023-05-20T04:27:30.919Z,505.00
2023-05-20T04:28:30.909Z,505.00
2023-05-20T04:29:30.932Z,501.00
2023-05-20T04:30:30.904Z,507.00
2023-05-20T04:31:30.953Z,508.00
2023-05-20T04:32:30.910Z,509.00
2023-05-20T04:33:30.878Z,513.00
2023-05-20T04:34:30.871Z,504.00
2023-05-20T04:35:30.989Z,508.00
2023-05-20T04:36:30.856Z,504.00
2023-05-20T04:37:30.858Z,509.00
2023-05-20T04:38:30.919Z,505.00
2023-05-20T04:39:30.978Z,513.00
2023-05-20T04:40:31.042Z,507.00
2023-05-20T04:41:31.118Z,510.00
2023-05-20T04:42:31.173Z,507.00
2023-05-20T04:43:31.240Z,503.00
2023-05-20T04:44:31.293Z,511.00
2023-05-20T04:45:31.595Z,508.00
2023-05-20T04:46:31.618Z,508.00
2023-05-20T04:47:31.499Z,506.00
2023-05-20T04:48:31.536Z,507.00
2023-05-20T04:49:31.595Z,508.00
2023-05-20T04:50:31.659Z,504.00
2023-05-20T04:51:31.747Z,511.00
2023-05-20T04:52:31.783Z,513.00
2023-05-20T04:53:31.853Z,505.00
2023-05-20T04:54:31.919Z,509.00
2023-05-20T04:55:32.072Z,511.00
2023-05-20T04:56:32.049Z,503.00
2023-05-20T04:57:32.110Z,511.00
2023-05-20T04:58:32.172Z,505.00
2023-05-20T04:59:32.236Z,510.00
2023-05-20T05:00:32.297Z,508.00
2023-05-20T05:01:32.450Z,505.00
2023-05-20T05:02:32.462Z,503.00
2023-05-20T05:03:32.524Z,509.00
2023-05-20T05:04:32.584Z,507.00
2023-05-20T05:05:32.941Z,506.00
2023-05-20T05:06:32.668Z,506.00
2023-05-20T05:07:32.745Z,507.00
2023-05-20T05:08:32.804Z,505.00
2023-05-20T05:09:34.798Z,501.00
2023-05-20T05:10:32.848Z,512.00
2023-05-20T05:11:32.864Z,516.00
2023-05-20T05:12:32.824Z,510.00
2023-05-20T05:13:32.818Z,508.00
2023-05-20T05:14:32.816Z,506.00
2023-05-20T05:15:33.214Z,504.00
2023-05-20T05:16:32.911Z,506.00
2023-05-20T05:17:32.857Z,510.00
2023-05-20T05:18:32.807Z,504.00
2023-05-20T05:19:32.780Z,503.00
2023-05-20T05:20:32.778Z,508.00
2023-05-20T05:21:32.782Z,505.00
2023-05-20T05:22:32.778Z,508.00
2023-05-20T05:23:32.750Z,510.00
2023-05-20T05:24:32.744Z,506.00
2023-05-20T05:25:33.034Z,500.00
2023-05-20T05:26:32.728Z,512.00
2023-05-20T05:27:32.729Z,509.00
2023-05-20T05:28:32.735Z,504.00
2023-05-20T05:29:32.786Z,504.00
2023-05-20T05:30:32.862Z,508.00
2023-05-20T05:31:32.924Z,503.00
2023-05-20T05:32:33.076Z,509.00
2023-05-20T05:33:33.159Z,506.00
2023-05-20T05:34:33.115Z,510.00
2023-05-20T05:35:33.573Z,508.00
2023-05-20T05:36:33.243Z,510.00
2023-05-20T05:37:33.302Z,502.00
2023-05-20T05:38:33.368Z,509.00
2023-05-20T05:39:33.422Z,508.00
2023-05-20T05:40:33.500Z,500.00
2023-05-20T05:41:33.547Z,506.00
2023-05-20T05:42:33.605Z,508.00
2023-05-20T05:43:33.673Z,510.00
2023-05-20T05:44:33.733Z,510.00
2023-05-20T05:45:34.028Z,501.00
2023-05-20T05:46:34.014Z,509.00
2023-05-20T05:47:34.007Z,503.00
2023-05-20T05:48:33.975Z,509.00
2023-05-20T05:49:34.894Z,507.00
2023-05-20T05:50:34.117Z,509.00
2023-05-20T05:51:35.495Z,508.00
2023-05-20T05:52:34.165Z,514.00
2023-05-20T05:53:34.216Z,511.00
2023-05-20T05:54:34.148Z,510.00
2023-05-20T05:55:34.344Z,509.00
2023-05-20T05:56:34.151Z,509.00
2023-05-20T05:57:34.131Z,511.00
2023-05-20T05:58:34.141Z,508.00
2023-05-20T05:59:34.125Z,510.00
2023-05-20T06:00:34.116Z,511.00
2023-05-20T06:01:34.107Z,510.00
2023-05-20T06:02:34.184Z,508.00
2023-05-20T06:03:34.213Z,506.00
2023-05-20T06:04:34.080Z,509.00
2023-05-20T06:05:34.368Z,506.00
2023-05-20T06:06:34.076Z,506.00
2023-05-20T06:07:34.080Z,507.00
2023-05-20T06:08:34.069Z,510.00
2023-05-20T06:09:34.056Z,507.00
2023-05-20T06:10:34.050Z,505.00
2023-05-20T06:11:34.048Z,510.00
2023-05-20T06:12:34.096Z,507.00
2023-05-20T06:13:34.147Z,507.00
2023-05-20T06:14:34.212Z,513.00
2023-05-20T06:15:34.485Z,504.00
2023-05-20T06:16:34.408Z,508.00
2023-05-20T06:17:34.442Z,505.00
2023-05-20T06:18:34.449Z,508.00
2023-05-20T06:19:34.586Z,507.00
2023-05-20T06:20:34.578Z,506.00
2023-05-20T06:21:34.661Z,504.00
2023-05-20T06:22:34.696Z,505.00
2023-05-20T06:23:34.757Z,506.00
2023-05-20T06:24:34.829Z,506.00
2023-05-20T06:25:35.078Z,507.00
2023-05-20T06:26:34.935Z,506.00
2023-05-20T06:27:34.999Z,509.00
2023-05-20T06:28:35.056Z,505.00
2023-05-20T06:29:35.124Z,508.00
2023-05-20T06:30:35.246Z,510.00
2023-05-20T06:31:35.294Z,507.00
2023-05-20T06:32:35.384Z,509.00
2023-05-20T06:33:35.372Z,510.00
2023-05-20T06:34:35.434Z,508.00
2023-05-20T06:35:35.811Z,506.00
2023-05-20T06:36:35.553Z,511.00
2023-05-20T06:37:35.696Z,515.00
2023-05-20T06:38:35.671Z,512.00
2023-05-20T06:39:35.731Z,510.00
2023-05-20T06:40:35.804Z,506.00
2023-05-20T06:41:35.863Z,506.00
2023-05-20T06:42:35.917Z,507.00
2023-05-20T06:43:35.979Z,506.00
2023-05-20T06:44:36.046Z,507.00
2023-05-20T06:45:36.179Z,506.00
2023-05-20T06:46:36.215Z,511.00
2023-05-20T06:47:36.294Z,510.00
2023-05-20T06:48:36.292Z,505.00
2023-05-20T06:49:36.358Z,510.00
2023-05-20T06:50:36.412Z,513.00
2023-05-20T06:51:36.472Z,509.00
2023-05-20T06:52:36.532Z,508.00
2023-05-20T06:53:36.644Z,505.00
2023-05-20T06:54:36.651Z,506.00
2023-05-20T06:55:36.893Z,510.00
2023-05-20T06:56:36.771Z,506.00
2023-05-20T06:57:36.832Z,509.00
2023-05-20T06:58:36.893Z,510.00
2023-05-20T06:59:36.975Z,507.00
2023-05-20T07:00:37.002Z,507.00
2023-05-20T07:01:37.112Z,507.00
2023-05-20T07:02:37.141Z,508.00
2023-05-20T07:03:37.230Z,508.00
2023-05-20T07:04:37.244Z,505.00
2023-05-20T07:05:37.296Z,510.00
2023-05-20T07:06:37.355Z,510.00
2023-05-20T07:07:37.427Z,505.00
2023-05-20T07:08:37.482Z,508.00
2023-05-20T07:09:37.550Z,505.00
2023-05-20T07:10:37.591Z,502.00
2023-05-20T07:11:37.662Z,507.00
2023-05-20T07:12:37.718Z,507.00
2023-05-20T07:13:37.774Z,512.00
2023-05-20T07:14:37.850Z,507.00
2023-05-20T07:15:37.902Z,511.00
2023-05-20T07:16:38.013Z,511.00
2023-05-20T07:17:38.042Z,514.00
2023-05-20T07:18:38.074Z,511.00
2023-05-20T07:19:38.129Z,511.00
2023-05-20T07:20:38.190Z,512.00
2023-05-20T07:21:38.255Z,514.00
2023-05-20T07:22:38.310Z,512.00
2023-05-20T07:23:38.376Z,508.00
2023-05-20T07:24:38.438Z,514.00
2023-05-20T07:25:38.521Z,511.00
2023-05-20T07:26:38.563Z,511.00
2023-05-20T07:27:38.620Z,512.00
2023-05-20T07:28:38.705Z,514.00
2023-05-20T07:29:38.726Z,514.00
2023-05-20T07:30:38.801Z,518.00
2023-05-20T07:31:38.925Z,512.00
2023-05-20T07:32:38.945Z,517.00
2023-05-20T07:33:38.978Z,516.00
2023-05-20T07:34:39.025Z,515.00
2023-05-20T07:35:39.079Z,512.00
2023-05-20T07:36:39.153Z,518.00
2023-05-20T07:37:39.192Z,518.00
2023-05-20T07:38:41.044Z,515.00
2023-05-20T07:39:39.285Z,518.00
2023-05-20T07:40:39.229Z,521.00
2023-05-20T07:41:39.368Z,518.00
2023-05-20T07:42:39.213Z,518.00
2023-05-20T07:43:39.205Z,512.00
2023-05-20T07:44:39.203Z,517.00
2023-05-20T07:45:39.254Z,515.00
2023-05-20T07:46:39.302Z,519.00
2023-05-20T07:47:39.217Z,513.00
2023-05-20T07:48:39.173Z,512.00
2023-05-20T07:49:39.171Z,513.00
2023-05-20T07:50:39.168Z,516.00
2023-05-20T07:51:39.157Z,510.00
2023-05-20T07:52:51.777Z,514.00
2023-05-20T07:53:39.144Z,515.00
2023-05-20T07:54:39.139Z,516.00
2023-05-20T07:55:39.124Z,517.00
2023-05-20T07:56:39.121Z,516.00
2023-05-20T07:57:39.137Z,515.00
2023-05-20T07:58:39.106Z,520.00
2023-05-20T07:59:39.163Z,518.00
2023-05-20T08:00:39.111Z,518.00
2023-05-20T08:01:39.087Z,518.00
2023-05-20T08:02:39.212Z,518.00
2023-05-20T08:03:39.134Z,515.00
2023-05-20T08:04:39.112Z,515.00
2023-05-20T08:05:39.069Z,520.00
2023-05-20T08:06:39.056Z,515.00
2023-05-20T08:07:39.057Z,517.00
2023-05-20T08:08:39.042Z,521.00
2023-05-20T08:09:39.035Z,523.00
2023-05-20T08:10:39.029Z,520.00
2023-05-20T08:11:39.021Z,516.00
2023-05-20T08:12:39.023Z,520.00
2023-05-20T08:13:39.036Z,514.00
2023-05-20T08:14:39.001Z,519.00
2023-05-20T08:15:38.997Z,518.00
2023-05-20T08:16:39.021Z,522.00
2023-05-20T08:17:39.035Z,517.00
2023-05-20T08:18:39.007Z,517.00
2023-05-20T08:19:38.964Z,523.00
2023-05-20T08:20:38.966Z,519.00
2023-05-20T08:21:39.015Z,521.00
2023-05-20T08:22:39.065Z,519.00
2023-05-20T08:23:40.579Z,519.00
2023-05-20T08:24:39.269Z,521.00
2023-05-20T08:25:39.327Z,519.00
2023-05-20T08:26:39.357Z,517.00
2023-05-20T08:27:39.408Z,515.00
2023-05-20T08:28:39.457Z,520.00
2023-05-20T08:29:39.534Z,519.00
2023-05-20T08:30:39.561Z,517.00
2023-05-20T08:31:39.685Z,519.00
2023-05-20T08:32:39.687Z,521.00
2023-05-20T08:33:39.720Z,517.00
2023-05-20T08:34:39.760Z,516.00
2023-05-20T08:35:39.808Z,516.00
2023-05-20T08:36:39.863Z,521.00
2023-05-20T08:37:39.919Z,520.00
2023-05-20T08:38:39.976Z,520.00
2023-05-20T08:39:40.039Z,521.00
2023-05-20T08:40:40.080Z,520.00
2023-05-20T08:41:40.125Z,523.00
2023-05-20T08:42:40.183Z,516.00
2023-05-20T08:43:40.247Z,519.00
2023-05-20T08:44:40.296Z,523.00
2023-05-20T08:45:40.364Z,521.00
2023-05-20T08:46:40.450Z,523.00
2023-05-20T08:47:40.473Z,521.00
2023-05-20T08:48:40.530Z,522.00
2023-05-20T08:49:40.550Z,521.00
2023-05-20T08:50:40.609Z,523.00
2023-05-20T08:51:40.670Z,519.00
2023-05-20T08:52:40.717Z,521.00
2023-05-20T08:53:40.775Z,521.00
2023-05-20T08:54:40.825Z,520.00
2023-05-20T08:55:40.879Z,520.00
2023-05-20T08:56:40.934Z,523.00
2023-05-20T08:57:40.977Z,520.00
2023-05-20T08:58:41.026Z,519.00
2023-05-20T08:59:41.086Z,519.00
2023-05-20T09:00:41.126Z,516.00
2023-05-20T09:01:41.299Z,519.00
2023-05-20T09:02:41.288Z,521.00
2023-05-20T09:03:41.285Z,521.00
2023-05-20T09:04:41.355Z,522.00
2023-05-20T09:05:41.381Z,521.00
2023-05-20T09:06:41.434Z,521.00
2023-05-20T09:07:41.467Z,523.00
2023-05-20T09:08:41.515Z,523.00
2023-05-20T09:09:41.561Z,524.00
2023-05-20T09:10:41.653Z,522.00
2023-05-20T09:11:41.649Z,523.00
2023-05-20T09:12:41.697Z,521.00
2023-05-20T09:13:41.741Z,525.00
2023-05-20T09:14:41.789Z,521.00
2023-05-20T09:15:41.855Z,521.00
2023-05-20T09:16:41.951Z,525.00
2023-05-20T09:17:42.003Z,528.00
2023-05-20T09:18:42.020Z,522.00
2023-05-20T09:19:42.039Z,527.00
2023-05-20T09:20:42.114Z,530.00
2023-05-20T09:21:42.150Z,529.00
2023-05-20T09:22:42.203Z,528.00
2023-05-20T09:23:42.221Z,522.00
2023-05-20T09:24:42.270Z,523.00
2023-05-20T09:25:42.315Z,528.00
2023-05-20T09:26:42.364Z,526.00
2023-05-20T09:27:42.411Z,532.00
2023-05-20T09:28:42.483Z,522.00
2023-05-20T09:29:42.506Z,530.00
2023-05-20T09:30:44.501Z,525.00
2023-05-20T09:31:42.629Z,525.00
2023-05-20T09:32:42.617Z,526.00
2023-05-20T09:33:42.578Z,527.00
2023-05-20T09:34:42.533Z,528.00
2023-05-20T09:35:42.518Z,531.00
2023-05-20T09:36:42.525Z,527.00
2023-05-20T09:37:42.511Z,531.00
2023-05-20T09:38:42.501Z,530.00
2023-05-20T09:39:42.484Z,539.00
2023-05-20T09:40:42.521Z,533.00
2023-05-20T09:41:42.472Z,529.00
2023-05-20T09:42:42.459Z,533.00
2023-05-20T09:43:42.511Z,530.00
2023-05-20T09:44:42.550Z,530.00
2023-05-20T09:45:42.497Z,534.00
2023-05-20T09:46:42.450Z,529.00
2023-05-20T09:47:42.469Z,532.00
2023-05-20T09:48:42.435Z,529.00
2023-05-20T09:49:42.438Z,536.00
2023-05-20T09:50:42.416Z,533.00
2023-05-20T09:51:42.420Z,532.00
2023-05-20T09:52:42.415Z,537.00
2023-05-20T09:53:42.415Z,531.00
2023-05-20T09:54:42.440Z,531.00
2023-05-20T09:55:42.487Z,531.00
2023-05-20T09:56:42.543Z,535.00
2023-05-20T09:57:42.584Z,534.00
2023-05-20T09:58:42.629Z,539.00
2023-05-20T09:59:42.668Z,535.00
2023-05-20T10:00:42.711Z,531.00
2023-05-20T10:01:42.813Z,533.00
2023-05-20T10:02:42.866Z,534.00
2023-05-20T10:03:44.316Z,532.00
2023-05-20T10:04:43.055Z,535.00
2023-05-20T10:05:43.134Z,541.00
2023-05-20T10:06:43.148Z,538.00
2023-05-20T10:07:43.187Z,536.00
2023-05-20T10:08:43.280Z,533.00
2023-05-20T10:09:43.272Z,538.00
2023-05-20T10:10:43.319Z,533.00
2023-05-20T10:11:43.358Z,532.00
2023-05-20T10:12:43.413Z,532.00
2023-05-20T10:13:43.454Z,535.00
2023-05-20T10:14:43.491Z,534.00
2023-05-20T10:15:43.544Z,529.00
2023-05-20T10:16:43.565Z,535.00
2023-05-20T10:17:43.680Z,536.00
2023-05-20T10:18:43.764Z,537.00
2023-05-20T10:19:43.687Z,535.00
2023-05-20T10:20:43.742Z,535.00
2023-05-20T10:21:43.803Z,530.00
2023-05-20T10:22:43.797Z,535.00
2023-05-20T10:23:43.834Z,538.00
2023-05-20T10:24:43.920Z,533.00
2023-05-20T10:25:43.921Z,534.00
2023-05-20T10:26:43.932Z,538.00
2023-05-20T10:27:43.962Z,532.00
2023-05-20T10:28:44.000Z,530.00
2023-05-20T10:29:44.095Z,534.00
2023-05-20T10:30:44.532Z,532.00
2023-05-20T10:31:44.095Z,535.00
2023-05-20T10:32:44.261Z,532.00
2023-05-20T10:33:44.265Z,536.00
2023-05-20T10:34:44.193Z,537.00
2023-05-20T10:35:44.231Z,533.00
2023-05-20T10:36:44.263Z,536.00
2023-05-20T10:37:44.333Z,532.00
2023-05-20T10:38:44.324Z,532.00
2023-05-20T10:39:44.365Z,532.00
2023-05-20T10:40:44.382Z,535.00
2023-05-20T10:41:44.438Z,537.00
2023-05-20T10:42:44.463Z,534.00
2023-05-20T10:43:44.494Z,541.00
2023-05-20T10:44:44.517Z,533.00
2023-05-20T10:45:44.551Z,535.00
2023-05-20T10:47:43.636Z,535.00
2023-05-20T10:48:44.683Z,536.00
2023-05-20T10:49:44.556Z,536.00
2023-05-20T10:50:44.556Z,537.00
2023-05-20T10:51:44.554Z,537.00
2023-05-20T10:52:44.540Z,539.00
2023-05-20T10:53:44.557Z,536.00
2023-05-20T10:54:44.521Z,533.00
2023-05-20T10:55:44.518Z,538.00
2023-05-20T10:56:44.511Z,540.00
2023-05-20T10:57:44.503Z,539.00
2023-05-20T10:58:44.503Z,536.00
2023-05-20T10:59:44.508Z,540.00
2023-05-20T11:00:44.586Z,540.00
2023-05-20T11:01:44.574Z,534.00
2023-05-20T11:02:44.691Z,538.00
2023-05-20T11:03:44.727Z,535.00
2023-05-20T11:04:44.687Z,539.00
2023-05-20T11:05:44.718Z,538.00
2023-05-20T11:06:44.754Z,542.00
2023-05-20T11:07:44.788Z,538.00
2023-05-20T11:08:44.824Z,538.00
2023-05-20T11:09:44.907Z,540.00
2023-05-20T11:10:44.885Z,539.00
2023-05-20T11:11:44.924Z,543.00
2023-05-20T11:12:44.975Z,539.00
2023-05-20T11:13:45.014Z,542.00
2023-05-20T11:14:45.077Z,541.00
2023-05-20T11:15:45.063Z,539.00
2023-05-20T11:16:45.124Z,542.00
2023-05-20T11:17:45.133Z,545.00
2023-05-20T11:18:45.197Z,536.00
2023-05-20T11:19:45.182Z,543.00
2023-05-20T11:20:45.215Z,543.00
2023-05-20T11:21:45.250Z,541.00
2023-05-20T11:22:45.269Z,541.00
2023-05-20T11:23:45.297Z,540.00
2023-05-20T11:24:45.349Z,539.00
2023-05-20T11:25:45.415Z,542.00
2023-05-20T11:26:45.407Z,543.00
2023-05-20T11:27:45.448Z,542.00
2023-05-20T11:28:45.489Z,546.00
2023-05-20T11:29:45.510Z,545.00
2023-05-20T11:30:45.557Z,545.00
2023-05-20T11:31:45.611Z,544.00
2023-05-20T11:32:45.656Z,548.00
2023-05-20T11:33:45.624Z,542.00
2023-05-20T11:34:45.653Z,547.00
2023-05-20T11:35:45.684Z,546.00
2023-05-20T11:36:45.713Z,547.00
2023-05-20T11:37:45.749Z,543.00
2023-05-20T11:38:45.779Z,542.00
2023-05-20T11:39:45.798Z,545.00
2023-05-20T11:40:50.736Z,544.00
2023-05-20T11:41:45.838Z,545.00
2023-05-20T11:42:45.809Z,546.00
2023-05-20T11:43:45.795Z,546.00
2023-05-20T11:44:45.789Z,546.00
2023-05-20T11:45:45.814Z,550.00
2023-05-20T11:46:45.792Z,547.00
2023-05-20T11:47:45.809Z,545.00
2023-05-20T11:48:45.756Z,550.00
2023-05-20T11:49:45.747Z,549.00
2023-05-20T11:50:45.750Z,545.00
2023-05-20T11:51:45.745Z,548.00
2023-05-20T11:52:45.730Z,547.00
2023-05-20T11:53:45.721Z,549.00
2023-05-20T11:54:45.711Z,543.00
2023-05-20T11:55:45.753Z,546.00
2023-05-20T11:56:45.706Z,548.00
2023-05-20T11:57:45.713Z,546.00
2023-05-20T11:58:45.689Z,545.00
2023-05-20T11:59:45.685Z,544.00
2023-05-20T12:01:44.665Z,547.00
2023-05-20T12:02:45.695Z,547.00
2023-05-20T12:03:45.854Z,549.00
2023-05-20T12:04:45.689Z,549.00
2023-05-20T12:05:45.641Z,549.00
2023-05-20T12:06:45.638Z,555.00
2023-05-20T12:07:45.632Z,545.00
2023-05-20T12:08:45.610Z,549.00
2023-05-20T12:09:45.610Z,550.00
2023-05-20T12:10:45.591Z,542.00
2023-05-20T12:11:45.608Z,547.00
2023-05-20T12:12:45.591Z,545.00
2023-05-20T12:13:45.605Z,552.00
2023-05-20T12:14:45.592Z,548.00
2023-05-20T12:15:45.618Z,551.00
2023-05-20T12:16:45.560Z,550.00
2023-05-20T12:17:45.592Z,549.00
2023-05-20T12:18:45.585Z,547.00
2023-05-20T12:19:45.736Z,551.00
2023-05-20T12:20:45.619Z,548.00
2023-05-20T12:21:45.627Z,547.00
2023-05-20T12:22:45.645Z,548.00
2023-05-20T12:23:45.671Z,552.00
2023-05-20T12:24:45.712Z,545.00
2023-05-20T12:25:45.761Z,548.00
2023-05-20T12:26:45.767Z,545.00
2023-05-20T12:27:45.797Z,548.00
2023-05-20T12:28:45.828Z,551.00
2023-05-20T12:29:45.890Z,546.00
2023-05-20T12:30:45.896Z,550.00